createdAt,value
2019-02-23T00:01:57.732Z,-6.60
2019-02-23T00:04:24.114Z,-6.70
2019-02-23T00:06:50.517Z,-6.70
2019-02-23T00:09:16.851Z,-6.60
2019-02-23T00:11:43.208Z,-6.60
2019-02-23T00:14:09.562Z,-6.50
2019-02-23T00:16:35.996Z,-6.50
2019-02-23T00:19:02.343Z,-6.60
2019-02-23T00:21:28.752Z,-6.50
2019-02-23T00:23:55.153Z,-6.70
2019-02-23T00:26:21.544Z,-6.60
2019-02-23T00:28:47.929Z,-6.60
2019-02-23T00:31:14.291Z,-6.40
2019-02-23T00:33:40.694Z,-6.40
2019-02-23T00:36:07.175Z,-6.40
2019-02-23T00:38:33.511Z,-6.40
2019-02-23T00:41:00.001Z,-6.40
2019-02-23T00:43:26.436Z,-6.30
2019-02-23T00:45:52.788Z,-6.20
2019-02-23T00:48:21.977Z,-6.10
2019-02-23T00:50:48.337Z,-6.00
2019-02-23T00:53:14.765Z,-5.90
2019-02-23T00:55:41.173Z,-6.00
2019-02-23T00:58:07.515Z,-6.00
2019-02-23T01:00:33.894Z,-6.00
2019-02-23T01:03:00.209Z,-6.10
2019-02-23T01:05:26.576Z,-6.00
2019-02-23T01:07:52.958Z,-6.00
2019-02-23T01:10:19.782Z,-6.10
2019-02-23T01:12:46.179Z,-6.20
2019-02-23T01:15:12.515Z,-6.10
2019-02-23T01:17:38.848Z,-6.20
2019-02-23T01:20:07.806Z,-6.20
2019-02-23T01:22:34.174Z,-6.20
2019-02-23T01:25:00.514Z,-6.20
2019-02-23T01:27:27.004Z,-6.20
2019-02-23T01:29:53.370Z,-6.20
2019-02-23T01:32:19.701Z,-6.30
2019-02-23T01:34:46.119Z,-6.40
2019-02-23T01:37:12.473Z,-6.50
2019-02-23T01:39:38.884Z,-6.60
2019-02-23T01:42:05.210Z,-6.60
2019-02-23T01:44:32.830Z,-6.50
2019-02-23T01:46:59.156Z,-6.70
2019-02-23T01:49:25.675Z,-6.50
2019-02-23T01:51:52.038Z,-6.60
2019-02-23T01:54:18.392Z,-6.60
2019-02-23T01:56:44.732Z,-6.60
2019-02-23T01:59:11.067Z,-6.70
2019-02-23T02:01:37.536Z,-6.70
2019-02-23T02:04:03.896Z,-6.80
2019-02-23T02:06:33.584Z,-6.80
2019-02-23T02:08:59.397Z,-6.70
2019-02-23T02:11:25.940Z,-6.70
2019-02-23T02:13:52.280Z,-6.70
2019-02-23T02:16:18.748Z,-6.70
2019-02-23T02:18:45.079Z,-6.60
2019-02-23T02:21:11.491Z,-6.70
2019-02-23T02:23:37.847Z,-6.90
2019-02-23T02:26:04.203Z,-6.90
2019-02-23T02:28:30.601Z,-7.00
2019-02-23T02:30:56.999Z,-6.80
2019-02-23T02:33:23.368Z,-6.90
2019-02-23T02:35:49.732Z,-6.90
2019-02-23T02:38:16.105Z,-6.90
2019-02-23T02:40:42.466Z,-6.90
2019-02-23T02:43:08.859Z,-6.80
2019-02-23T02:45:35.451Z,-6.80
2019-02-23T02:48:01.830Z,-6.60
2019-02-23T02:50:28.185Z,-6.90
2019-02-23T02:52:54.544Z,-6.90
2019-02-23T02:55:20.907Z,-6.80
2019-02-23T02:57:47.362Z,-6.90
2019-02-23T03:00:13.872Z,-6.80
2019-02-23T03:02:41.486Z,-6.80
2019-02-23T03:05:08.370Z,-6.80
2019-02-23T03:07:35.790Z,-6.80
2019-02-23T03:10:02.775Z,-6.70
2019-02-23T03:12:29.330Z,-6.70
2019-02-23T03:14:56.803Z,-6.70
2019-02-23T03:17:23.110Z,-6.60
2019-02-23T03:19:49.485Z,-6.60
2019-02-23T03:22:15.829Z,-6.50
2019-02-23T03:24:42.211Z,-6.60
2019-02-23T03:27:08.654Z,-6.40
2019-02-23T03:29:34.993Z,-6.40
2019-02-23T03:32:01.366Z,-6.50
2019-02-23T03:34:27.719Z,-6.40
2019-02-23T03:36:54.051Z,-6.40
2019-02-23T03:39:20.424Z,-6.10
2019-02-23T03:41:46.814Z,-6.20
2019-02-23T03:44:13.282Z,-6.10
2019-02-23T03:46:39.650Z,-6.10
2019-02-23T03:49:06.061Z,-6.20
2019-02-23T03:51:32.873Z,-6.10
2019-02-23T03:53:59.880Z,-6.10
2019-02-23T03:56:26.822Z,-6.00
2019-02-23T03:58:53.943Z,-5.90
2019-02-23T04:01:20.976Z,-5.90
2019-02-23T04:03:47.469Z,-5.90
2019-02-23T04:06:13.820Z,-5.90
2019-02-23T04:08:40.262Z,-5.90
2019-02-23T04:11:06.583Z,-5.80
2019-02-23T04:13:33.482Z,-5.90
2019-02-23T04:15:59.926Z,-5.90
2019-02-23T04:18:26.904Z,-5.80
2019-02-23T04:21:01.246Z,-5.70
2019-02-23T04:23:21.379Z,-5.70
2019-02-23T04:25:47.700Z,-5.70
2019-02-23T04:28:14.088Z,-5.70
2019-02-23T04:30:40.396Z,-5.70
2019-02-23T04:33:06.753Z,-5.70
2019-02-23T04:35:33.111Z,-5.60
2019-02-23T04:37:59.485Z,-5.50
2019-02-23T04:40:25.842Z,-5.60
2019-02-23T04:42:52.217Z,-5.70
2019-02-23T04:45:18.594Z,-5.70
2019-02-23T04:47:45.059Z,-5.70
2019-02-23T04:50:11.416Z,-5.70
2019-02-23T04:52:37.760Z,-5.70
2019-02-23T04:55:05.913Z,-5.70
2019-02-23T04:57:32.303Z,-5.60
2019-02-23T04:59:58.702Z,-5.60
2019-02-23T05:02:25.109Z,-5.60
2019-02-23T05:04:51.432Z,-5.50
2019-02-23T05:07:17.794Z,-5.50
2019-02-23T05:09:44.163Z,-5.40
2019-02-23T05:12:10.576Z,-5.50
2019-02-23T05:14:36.916Z,-5.50
2019-02-23T05:17:03.304Z,-5.50
2019-02-23T05:19:29.652Z,-5.60
2019-02-23T05:21:56.091Z,-5.60
2019-02-23T05:24:22.422Z,-5.60
2019-02-23T05:26:48.794Z,-5.60
2019-02-23T05:29:15.149Z,-5.70
2019-02-23T05:31:41.505Z,-5.70
2019-02-23T05:34:07.866Z,-5.70
2019-02-23T05:36:34.262Z,-5.90
2019-02-23T05:39:00.587Z,-6.00
2019-02-23T05:41:26.967Z,-6.00
2019-02-23T05:43:53.297Z,-5.90
2019-02-23T05:46:19.689Z,-6.10
2019-02-23T05:48:46.067Z,-6.00
2019-02-23T05:51:12.406Z,-6.10
2019-02-23T05:53:38.801Z,-6.10
2019-02-23T05:56:05.151Z,-6.00
2019-02-23T05:58:34.618Z,-6.10
2019-02-23T06:01:01.037Z,-6.10
2019-02-23T06:03:27.390Z,-6.10
2019-02-23T06:05:53.763Z,-6.00
2019-02-23T06:08:20.436Z,-6.00
2019-02-23T06:10:47.915Z,-5.90
2019-02-23T06:13:17.291Z,-5.90
2019-02-23T06:15:43.694Z,-5.90
2019-02-23T06:18:10.054Z,-5.90
2019-02-23T06:20:36.460Z,-5.90
2019-02-23T06:23:02.850Z,-5.70
2019-02-23T06:25:29.187Z,-5.70
2019-02-23T06:27:55.633Z,-5.70
2019-02-23T06:30:22.161Z,-5.50
2019-02-23T06:32:48.603Z,-5.40
2019-02-23T06:35:14.893Z,-5.30
2019-02-23T06:37:41.282Z,-5.30
2019-02-23T06:40:09.538Z,-5.20
2019-02-23T06:42:36.780Z,-5.10
2019-02-23T06:45:06.997Z,-5.00
2019-02-23T06:47:33.419Z,-4.90
2019-02-23T06:49:59.896Z,-4.70
2019-02-23T06:52:26.909Z,-4.70
2019-02-23T06:54:53.273Z,-4.60
2019-02-23T06:57:19.653Z,-4.50
2019-02-23T06:59:46.007Z,-4.30
2019-02-23T07:02:12.436Z,-4.30
2019-02-23T07:04:38.854Z,-4.20
2019-02-23T07:07:06.020Z,-4.20
2019-02-23T07:09:32.547Z,-4.10
2019-02-23T07:11:58.954Z,-4.10
2019-02-23T07:14:25.379Z,-3.90
2019-02-23T07:16:51.754Z,-3.80
2019-02-23T07:19:19.179Z,-3.50
2019-02-23T07:21:45.593Z,-3.30
2019-02-23T07:24:11.941Z,-3.10
2019-02-23T07:26:38.292Z,-2.90
2019-02-23T07:29:04.743Z,-2.80
2019-02-23T07:31:31.093Z,-2.40
2019-02-23T07:33:57.440Z,-2.30
2019-02-23T07:36:23.788Z,-2.20
2019-02-23T07:38:50.231Z,-2.20
2019-02-23T07:41:16.652Z,-2.10
2019-02-23T07:43:43.089Z,-2.10
2019-02-23T07:46:09.509Z,-2.10
2019-02-23T07:48:36.103Z,-2.10
2019-02-23T07:51:02.507Z,-2.20
2019-02-23T07:53:28.992Z,-2.20
2019-02-23T07:55:55.386Z,-2.40
2019-02-23T07:58:21.813Z,-2.30
2019-02-23T08:00:48.282Z,-2.20
2019-02-23T08:03:15.532Z,-1.90
2019-02-23T08:05:42.178Z,-1.70
2019-02-23T08:08:08.612Z,-1.50
2019-02-23T08:10:35.038Z,-1.30
2019-02-23T08:13:01.514Z,-0.90
2019-02-23T08:15:28.509Z,-0.60
2019-02-23T08:17:55.024Z,-0.60
2019-02-23T08:20:21.498Z,-0.20
2019-02-23T08:22:47.944Z,-0.10
2019-02-23T08:25:14.481Z,-0.10
2019-02-23T08:27:40.872Z,-0.30
2019-02-23T08:30:15.804Z,0.00
2019-02-23T08:32:43.267Z,0.40
2019-02-23T08:35:09.699Z,0.60
2019-02-23T08:37:36.092Z,0.70
2019-02-23T08:40:05.644Z,0.70
2019-02-23T08:42:32.080Z,0.90
2019-02-23T08:44:58.532Z,0.90
2019-02-23T08:47:25.064Z,0.80
2019-02-23T08:49:51.441Z,0.90
2019-02-23T08:52:17.907Z,0.90
2019-02-23T08:54:44.346Z,0.70
2019-02-23T08:57:10.763Z,0.50
2019-02-23T08:59:37.168Z,0.30
2019-02-23T09:02:03.565Z,0.40
2019-02-23T09:04:29.977Z,0.60
2019-02-23T09:06:56.459Z,0.70
2019-02-23T09:09:22.804Z,0.70
2019-02-23T09:11:49.264Z,1.00
2019-02-23T09:14:15.685Z,1.20
2019-02-23T09:16:42.096Z,1.10
2019-02-23T09:19:08.542Z,1.20
2019-02-23T09:21:34.905Z,1.20
2019-02-23T09:24:01.363Z,1.10
2019-02-23T09:26:27.773Z,0.90
2019-02-23T09:28:54.147Z,0.80
2019-02-23T09:31:20.598Z,0.70
2019-02-23T09:33:47.134Z,0.90
2019-02-23T09:36:14.496Z,1.00
2019-02-23T09:38:40.929Z,1.40
2019-02-23T09:41:07.335Z,1.60
2019-02-23T09:43:33.794Z,1.80
2019-02-23T09:46:00.139Z,1.80
2019-02-23T09:48:26.573Z,2.00
2019-02-23T09:50:52.928Z,2.20
2019-02-23T09:53:19.306Z,2.20
2019-02-23T09:55:46.124Z,2.00
2019-02-23T09:58:15.330Z,1.90
2019-02-23T10:00:41.744Z,1.70
2019-02-23T10:03:08.080Z,1.70
2019-02-23T10:05:34.446Z,1.60
2019-02-23T10:08:00.862Z,1.30
2019-02-23T10:10:27.265Z,1.40
2019-02-23T10:12:53.695Z,1.30
2019-02-23T10:15:20.105Z,1.20
2019-02-23T10:17:46.497Z,1.40
2019-02-23T10:20:13.953Z,1.60
2019-02-23T10:22:40.417Z,1.70
2019-02-23T10:25:07.151Z,1.60
2019-02-23T10:27:33.702Z,1.60
2019-02-23T10:30:00.175Z,1.70
2019-02-23T10:32:26.894Z,1.70
2019-02-23T10:34:53.276Z,1.70
2019-02-23T10:37:19.755Z,1.80
2019-02-23T10:39:46.168Z,1.70
2019-02-23T10:42:13.733Z,1.60
2019-02-23T10:44:40.181Z,1.50
2019-02-23T10:47:06.616Z,1.40
2019-02-23T10:49:33.074Z,1.40
2019-02-23T10:51:59.488Z,1.40
2019-02-23T10:54:25.985Z,1.40
2019-02-23T10:56:52.550Z,1.40
2019-02-23T10:59:18.881Z,1.30
2019-02-23T11:01:45.358Z,1.30
2019-02-23T11:04:11.848Z,1.20
2019-02-23T11:06:38.580Z,1.10
2019-02-23T11:09:05.249Z,1.10
2019-02-23T11:11:33.579Z,1.00
2019-02-23T11:13:59.973Z,1.10
2019-02-23T11:16:26.349Z,1.10
2019-02-23T11:18:52.725Z,1.20
2019-02-23T11:21:19.338Z,1.20
2019-02-23T11:23:46.047Z,1.20
2019-02-23T11:26:12.496Z,1.30
2019-02-23T11:28:39.938Z,1.30
2019-02-23T11:31:06.389Z,1.30
2019-02-23T11:33:33.855Z,1.30
2019-02-23T11:36:00.301Z,1.40
2019-02-23T11:38:26.700Z,1.40
2019-02-23T11:40:53.197Z,1.50
2019-02-23T11:43:19.541Z,1.50
2019-02-23T11:45:46.020Z,1.60
2019-02-23T11:48:12.618Z,1.70
2019-02-23T11:50:39.215Z,1.60
2019-02-23T11:53:05.669Z,1.50
2019-02-23T11:55:32.266Z,1.60
2019-02-23T11:57:58.808Z,1.50
2019-02-23T12:00:25.566Z,1.50
2019-02-23T12:02:52.912Z,1.40
2019-02-23T12:05:19.557Z,1.40
2019-02-23T12:07:45.930Z,1.50
2019-02-23T12:10:14.280Z,1.60
2019-02-23T12:12:40.833Z,1.50
2019-02-23T12:15:07.730Z,1.50
2019-02-23T12:17:34.258Z,1.30
2019-02-23T12:20:00.825Z,1.30
2019-02-23T12:22:27.353Z,1.40
2019-02-23T12:24:53.780Z,1.50
2019-02-23T12:27:20.337Z,1.60
2019-02-23T12:29:46.805Z,1.70
2019-02-23T12:32:13.248Z,1.70
2019-02-23T12:34:39.707Z,1.80
2019-02-23T12:37:06.187Z,1.80
2019-02-23T12:39:32.655Z,1.80
2019-02-23T12:41:59.853Z,1.90
2019-02-23T12:44:26.495Z,1.90
2019-02-23T12:46:52.934Z,2.00
2019-02-23T12:49:19.410Z,1.90
2019-02-23T12:51:45.813Z,2.00
2019-02-23T12:54:16.826Z,2.10
2019-02-23T12:56:41.594Z,2.30
2019-02-23T12:59:08.141Z,2.60
2019-02-23T13:01:34.699Z,2.60
2019-02-23T13:04:01.091Z,2.60
2019-02-23T13:06:27.560Z,2.50
2019-02-23T13:09:14.488Z,2.40
2019-02-23T13:11:59.885Z,2.50
2019-02-23T13:14:32.971Z,2.50
2019-02-23T13:17:05.942Z,2.50
2019-02-23T13:19:45.296Z,2.70
2019-02-23T13:22:15.936Z,2.80
2019-02-23T13:24:49.339Z,3.00
2019-02-23T13:27:26.007Z,3.90
2019-02-23T13:30:11.072Z,4.60
2019-02-23T13:32:59.122Z,5.50
2019-02-23T13:35:44.694Z,6.30
2019-02-23T13:38:21.193Z,7.00
2019-02-23T13:41:03.757Z,7.40
2019-02-23T13:43:40.090Z,6.60
2019-02-23T13:46:19.466Z,6.20
2019-02-23T13:49:22.703Z,6.00
2019-02-23T13:52:05.265Z,6.20
2019-02-23T13:54:53.832Z,5.90
2019-02-23T13:57:27.079Z,5.50
2019-02-23T14:00:13.067Z,5.90
2019-02-23T14:03:17.321Z,5.80
2019-02-23T14:06:05.979Z,5.20
2019-02-23T14:09:10.076Z,4.70
2019-02-23T14:12:04.979Z,4.20
2019-02-23T14:14:47.469Z,3.90
2019-02-23T14:17:23.882Z,3.50
2019-02-23T14:19:57.111Z,3.30
2019-02-23T14:22:46.872Z,3.00
2019-02-23T14:25:43.205Z,2.90
2019-02-23T14:28:22.373Z,2.80
2019-02-23T14:31:16.476Z,2.60
2019-02-23T14:33:52.605Z,2.60
2019-02-23T14:36:50.255Z,2.60
2019-02-23T14:39:32.768Z,2.50
2019-02-23T14:42:19.848Z,2.40
2019-02-23T14:45:17.338Z,2.30
2019-02-23T14:47:53.494Z,2.30
2019-02-23T14:50:32.179Z,2.10
2019-02-23T14:53:19.070Z,2.10
2019-02-23T14:55:58.038Z,2.00
2019-02-23T14:58:28.274Z,1.90
2019-02-23T15:01:25.651Z,1.90
2019-02-23T15:04:04.842Z,1.90
2019-02-23T15:06:58.401Z,1.90
2019-02-23T15:10:00.327Z,1.90
2019-02-23T15:12:39.312Z,1.90
2019-02-23T15:15:19.175Z,1.80
2019-02-23T15:17:55.700Z,1.80
2019-02-23T15:20:46.121Z,1.80
2019-02-23T15:23:32.507Z,1.80
2019-02-23T15:26:05.825Z,1.80
2019-02-23T15:28:52.827Z,1.70
2019-02-23T15:31:42.942Z,1.70
2019-02-23T15:34:19.164Z,1.60
2019-02-23T15:37:23.273Z,1.50
2019-02-23T15:40:02.838Z,1.50
2019-02-23T15:42:32.984Z,1.50
2019-02-23T15:45:19.988Z,1.50
2019-02-23T15:48:07.091Z,1.40
2019-02-23T15:50:33.968Z,1.30
2019-02-23T15:53:00.319Z,1.30
2019-02-23T15:55:29.852Z,1.20
2019-02-23T15:57:55.633Z,1.20
2019-02-23T16:00:22.100Z,1.10
2019-02-23T16:02:48.469Z,1.10
2019-02-23T16:05:14.826Z,1.00
2019-02-23T16:07:41.275Z,0.90
2019-02-23T16:10:07.736Z,0.80
2019-02-23T16:12:34.223Z,0.80
2019-02-23T16:15:01.382Z,0.70
2019-02-23T16:17:29.833Z,0.60
2019-02-23T16:19:56.262Z,0.50
2019-02-23T16:22:23.529Z,0.50
2019-02-23T16:24:49.944Z,0.30
2019-02-23T16:27:16.459Z,0.30
2019-02-23T16:29:42.943Z,0.10
2019-02-23T16:32:09.398Z,0.10
2019-02-23T16:34:35.889Z,0.00
2019-02-23T16:37:02.327Z,-0.10
2019-02-23T16:39:29.827Z,-0.20
2019-02-23T16:41:57.296Z,-0.30
2019-02-23T16:44:23.895Z,-0.30
2019-02-23T16:46:50.355Z,-0.30
2019-02-23T16:49:16.908Z,-0.40
2019-02-23T16:51:44.483Z,-0.40
2019-02-23T16:54:12.357Z,-0.30
2019-02-23T16:56:39.243Z,-0.30
2019-02-23T16:59:06.867Z,-0.30
2019-02-23T17:01:34.514Z,-0.30
2019-02-23T17:04:01.285Z,-0.40
2019-02-23T17:06:27.943Z,-0.40
2019-02-23T17:08:54.459Z,-0.50
2019-02-23T17:11:21.706Z,-0.60
2019-02-23T17:13:48.957Z,-0.20
2019-02-23T17:16:15.396Z,-0.60
2019-02-23T17:18:42.811Z,-0.30
2019-02-23T17:21:09.700Z,-0.70
2019-02-23T17:23:36.941Z,-0.70
2019-02-23T17:26:04.698Z,-0.70
2019-02-23T17:28:31.336Z,-0.70
2019-02-23T17:30:58.739Z,-0.70
2019-02-23T17:33:27.879Z,-0.80
2019-02-23T17:35:53.466Z,-0.90
2019-02-23T17:38:19.955Z,-0.90
2019-02-23T17:40:46.347Z,-0.90
2019-02-23T17:43:12.946Z,-0.90
2019-02-23T17:45:39.358Z,-1.00
2019-02-23T17:48:05.774Z,-1.00
2019-02-23T17:50:32.168Z,-1.00
2019-02-23T17:52:58.672Z,-1.00
2019-02-23T17:55:25.266Z,-1.00
2019-02-23T17:57:51.951Z,-1.00
2019-02-23T18:00:20.382Z,-1.00
2019-02-23T18:02:46.785Z,-1.10
2019-02-23T18:05:13.132Z,-1.10
2019-02-23T18:07:39.747Z,-1.00
2019-02-23T18:10:06.254Z,-1.00
2019-02-23T18:12:32.616Z,-1.00
2019-02-23T18:14:59.393Z,-1.10
2019-02-23T18:17:25.857Z,-1.10
2019-02-23T18:19:52.367Z,-1.20
2019-02-23T18:22:19.030Z,-1.10
2019-02-23T18:24:46.126Z,-1.10
2019-02-23T18:27:12.791Z,-1.20
2019-02-23T18:29:39.374Z,-1.20
2019-02-23T18:32:05.757Z,-1.20
2019-02-23T18:34:32.316Z,-1.20
2019-02-23T18:37:00.162Z,-1.20
2019-02-23T18:39:27.319Z,-1.20
2019-02-23T18:41:53.899Z,-1.30
2019-02-23T18:44:20.321Z,-1.30
2019-02-23T18:46:47.815Z,-1.40
2019-02-23T18:49:14.231Z,-1.40
2019-02-23T18:51:40.643Z,-1.40
2019-02-23T18:54:07.097Z,-1.40
2019-02-23T18:56:33.527Z,-1.50
2019-02-23T18:59:01.120Z,-1.50
2019-02-23T19:01:27.588Z,-1.60
2019-02-23T19:03:54.007Z,-1.50
2019-02-23T19:06:20.341Z,-1.60
2019-02-23T19:08:46.747Z,-1.70
2019-02-23T19:11:13.112Z,-1.70
2019-02-23T19:13:39.604Z,-1.80
2019-02-23T19:16:06.212Z,-1.70
2019-02-23T19:18:32.654Z,-1.70
2019-02-23T19:20:59.131Z,-1.80
2019-02-23T19:23:25.765Z,-1.80
2019-02-23T19:25:52.167Z,-1.80
2019-02-23T19:28:18.603Z,-1.70
2019-02-23T19:30:45.176Z,-1.70
2019-02-23T19:33:11.653Z,-1.80
2019-02-23T19:35:38.167Z,-1.80
2019-02-23T19:38:04.566Z,-1.80
2019-02-23T19:40:30.982Z,-1.90
2019-02-23T19:42:57.345Z,-1.80
2019-02-23T19:45:23.777Z,-1.80
2019-02-23T19:47:50.298Z,-1.90
2019-02-23T19:50:23.373Z,-1.90
2019-02-23T19:52:50.885Z,-1.80
2019-02-23T19:55:17.264Z,-1.80
2019-02-23T19:57:43.822Z,-1.90
2019-02-23T20:00:10.289Z,-1.90
2019-02-23T20:02:37.378Z,-1.90
2019-02-23T20:05:07.203Z,-1.90
2019-02-23T20:07:34.734Z,-1.90
2019-02-23T20:10:01.108Z,-1.90
2019-02-23T20:12:28.263Z,-1.90
2019-02-23T20:14:54.775Z,-1.80
2019-02-23T20:17:21.228Z,-1.80
2019-02-23T20:19:47.708Z,-1.80
2019-02-23T20:22:14.157Z,-1.70
2019-02-23T20:24:40.655Z,-1.70
2019-02-23T20:27:07.085Z,-1.70
2019-02-23T20:29:33.604Z,-1.60
2019-02-23T20:32:00.040Z,-1.60
2019-02-23T20:34:26.419Z,-1.50
2019-02-23T20:36:52.947Z,-1.50
2019-02-23T20:39:19.473Z,-1.50
2019-02-23T20:41:45.915Z,-1.40
2019-02-23T20:44:12.336Z,-1.40
2019-02-23T20:46:39.059Z,-1.40
2019-02-23T20:49:05.452Z,-1.40
2019-02-23T20:51:31.897Z,-1.40
2019-02-23T20:53:58.320Z,-1.40
2019-02-23T20:56:24.790Z,-1.40
2019-02-23T20:58:51.209Z,-1.30
2019-02-23T21:01:17.609Z,-1.40
2019-02-23T21:03:44.107Z,-1.40
2019-02-23T21:06:10.465Z,-1.40
2019-02-23T21:08:36.984Z,-1.40
2019-02-23T21:11:03.331Z,-1.30
2019-02-23T21:13:29.745Z,-1.30
2019-02-23T21:15:56.170Z,-1.30
2019-02-23T21:18:22.713Z,-1.20
2019-02-23T21:20:49.195Z,-1.20
2019-02-23T21:23:15.670Z,-1.20
2019-02-23T21:25:42.836Z,-1.20
2019-02-23T21:28:09.513Z,-1.20
2019-02-23T21:30:36.209Z,-1.20
2019-02-23T21:33:02.722Z,-1.30
2019-02-23T21:35:29.486Z,-1.20
2019-02-23T21:37:56.085Z,-1.30
2019-02-23T21:40:22.465Z,-1.30
2019-02-23T21:42:48.927Z,-1.10
2019-02-23T21:45:15.392Z,-1.30
2019-02-23T21:47:41.780Z,-1.20
2019-02-23T21:50:09.144Z,-1.20
2019-02-23T21:52:37.010Z,-1.20
2019-02-23T21:55:03.669Z,-1.20
2019-02-23T21:57:31.976Z,-1.00
2019-02-23T21:59:58.389Z,-1.10
2019-02-23T22:02:24.868Z,-1.10
2019-02-23T22:04:51.277Z,-1.10
2019-02-23T22:07:17.707Z,-1.10
2019-02-23T22:09:44.218Z,-1.20
2019-02-23T22:12:10.660Z,-1.20
2019-02-23T22:14:37.129Z,-1.20
2019-02-23T22:17:03.626Z,-1.20
2019-02-23T22:19:30.064Z,-1.10
2019-02-23T22:21:56.673Z,-1.20
2019-02-23T22:24:23.038Z,-1.10
2019-02-23T22:26:49.496Z,-1.10
2019-02-23T22:29:15.919Z,-1.10
2019-02-23T22:31:43.987Z,-1.00
2019-02-23T22:34:10.610Z,-1.00
2019-02-23T22:36:37.061Z,-0.90
2019-02-23T22:39:03.902Z,-0.90
2019-02-23T22:41:32.083Z,-0.80
2019-02-23T22:43:58.431Z,-0.70
2019-02-23T22:46:24.807Z,-0.80
2019-02-23T22:48:51.148Z,-0.80
2019-02-23T22:51:17.568Z,-0.70
2019-02-23T22:53:43.921Z,-0.70
2019-02-23T22:56:10.281Z,-0.70
2019-02-23T22:58:36.695Z,-0.60
2019-02-23T23:01:05.288Z,-0.60
2019-02-23T23:03:33.825Z,-0.60
2019-02-23T23:06:00.190Z,-0.50
2019-02-23T23:08:26.593Z,-0.50
2019-02-23T23:10:52.973Z,-0.50
2019-02-23T23:13:19.348Z,-0.50
2019-02-23T23:15:45.794Z,-0.50
2019-02-23T23:18:12.239Z,-0.50
2019-02-23T23:20:38.641Z,-0.50
2019-02-23T23:23:05.006Z,-0.40
2019-02-23T23:25:31.423Z,-0.40
2019-02-23T23:27:57.774Z,-0.50
2019-02-23T23:30:24.184Z,-0.40
2019-02-23T23:32:50.713Z,-0.40
2019-02-23T23:35:18.229Z,-0.30
2019-02-23T23:37:44.668Z,-0.40
2019-02-23T23:40:11.005Z,-0.40
2019-02-23T23:42:38.544Z,-0.30
2019-02-23T23:45:05.001Z,-0.30
2019-02-23T23:47:31.870Z,-0.30
2019-02-23T23:49:58.233Z,-0.30
2019-02-23T23:52:24.581Z,-0.30
2019-02-23T23:54:51.014Z,-0.30
2019-02-23T23:57:17.384Z,-0.30
2019-02-23T23:59:43.781Z,-0.30
